Time;durP1;ratioP1;P1;durP2;ratioP2;P2;SDS_P1;SDS_P2;PMS_P1;PMS_P2;Temp;Humidity;BMP_temperature;BMP_pressure;BME280_temperature;BME280_humidity;BME280_pressure;Samples;Min_cycle;Max_cycle;Signal;HPM_P1;HPM_P2
2023/07/26 00:01:27;;;;;;;3.38;2.53;;;;;;;;;;5033875;28;20025;-75
2023/07/26 00:03:58;;;;;;;4.57;2.70;;;;;;;;;;5035429;28;20117;-75
2023/07/26 00:06:24;;;;;;;4.07;2.65;;;;;;;;;;5033760;28;20029;-75
2023/07/26 00:08:49;;;;;;;4.68;2.65;;;;;;;;;;5034684;28;20021;-75
2023/07/26 00:11:15;;;;;;;5.43;2.58;;;;;;;;;;5035201;28;20029;-75
2023/07/26 00:13:40;;;;;;;5.45;2.80;;;;;;;;;;5035272;28;20083;-75
2023/07/26 00:16:05;;;;;;;4.28;3.00;;;;;;;;;;5035081;28;20018;-75
2023/07/26 00:18:31;;;;;;;4.30;2.78;;;;;;;;;;5035055;28;20025;-75
2023/07/26 00:20:56;;;;;;;5.25;2.85;;;;;;;;;;5035297;28;20021;-75
2023/07/26 00:23:22;;;;;;;5.10;2.63;;;;;;;;;;5034076;28;20497;-75
2023/07/26 00:25:47;;;;;;;5.28;2.72;;;;;;;;;;5033906;28;20495;-76
2023/07/26 00:28:12;;;;;;;4.25;2.72;;;;;;;;;;5034635;28;20049;-75
2023/07/26 00:30:38;;;;;;;3.83;2.85;;;;;;;;;;5035025;28;20080;-75
2023/07/26 00:33:03;;;;;;;3.60;2.42;;;;;;;;;;5034805;28;20028;-76
2023/07/26 00:35:35;;;;;;;4.25;2.92;;;;;;;;;;5034921;28;20384;-75
2023/07/26 00:38:00;;;;;;;3.90;2.63;;;;;;;;;;5034792;28;20032;-76
2023/07/26 00:40:26;;;;;;;4.32;3.00;;;;;;;;;;5033648;28;20116;-75
2023/07/26 00:42:51;;;;;;;5.13;2.63;;;;;;;;;;5034179;28;20384;-76
2023/07/26 00:45:17;;;;;;;4.32;2.95;;;;;;;;;;5034673;28;20030;-75
2023/07/26 00:47:43;;;;;;;6.10;3.15;;;;;;;;;;5032465;28;20030;-75
2023/07/26 00:50:09;;;;;;;4.13;2.70;;;;;;;;;;5033553;28;20017;-75
2023/07/26 00:52:36;;;;;;;4.68;2.72;;;;;;;;;;5034087;28;20098;-75
2023/07/26 00:55:02;;;;;;;4.18;2.80;;;;;;;;;;5034645;28;20028;-75
2023/07/26 00:57:31;;;;;;;4.10;2.60;;;;;;;;;;5033019;28;20470;-76
2023/07/26 00:59:57;;;;;;;4.55;2.80;;;;;;;;;;5031816;28;20021;-76
2023/07/26 01:02:23;;;;;;;4.13;2.75;;;;;;;;;;5033142;28;20616;-76
2023/07/26 01:04:49;;;;;;;4.65;3.10;;;;;;;;;;5032827;28;20108;-75
2023/07/26 01:07:22;;;;;;;4.47;3.10;;;;;;;;;;5033936;28;20029;-75
2023/07/26 01:09:47;;;;;;;;;;;;;;;;;;5025631;28;20036;-75
2023/07/26 01:12:18;;;;;;;4.97;3.15;;;;;;;;;;5032830;28;19921;-75
2023/07/26 01:14:49;;;;;;;4.63;3.10;;;;;;;;;;5032909;28;20026;-76
2023/07/26 01:17:14;;;;;;;4.50;3.10;;;;;;;;;;5031536;28;20079;-76
2023/07/26 01:19:41;;;;;;;4.53;3.20;;;;;;;;;;5032939;28;20026;-76
2023/07/26 01:22:06;;;;;;;5.25;3.10;;;;;;;;;;5030689;28;20032;-76
2023/07/26 01:24:32;;;;;;;4.13;2.92;;;;;;;;;;5029868;28;20108;-75
2023/07/26 01:26:58;;;;;;;4.13;2.80;;;;;;;;;;5028620;28;20108;-75
2023/07/26 01:29:23;;;;;;;4.78;2.92;;;;;;;;;;5035307;28;20038;-75
2023/07/26 01:31:49;;;;;;;4.20;3.00;;;;;;;;;;5033620;28;20025;-75
2023/07/26 01:34:15;;;;;;;4.65;3.35;;;;;;;;;;5027996;28;20028;-75
2023/07/26 01:36:41;;;;;;;4.90;2.80;;;;;;;;;;5032352;28;20112;-76
2023/07/26 01:39:08;;;;;;;5.00;3.13;;;;;;;;;;5033820;28;20025;-76
2023/07/26 01:41:34;;;;;;;4.78;3.00;;;;;;;;;;5033886;28;20381;-75
2023/07/26 01:43:59;;;;;;;4.50;2.75;;;;;;;;;;5033523;28;20355;-76
2023/07/26 01:46:25;;;;;;;4.78;3.33;;;;;;;;;;5032201;28;20056;-76
2023/07/26 01:48:50;;;;;;;4.80;3.45;;;;;;;;;;5033369;28;20055;-75
2023/07/26 01:51:16;;;;;;;5.18;3.30;;;;;;;;;;5025797;28;20021;-76
2023/07/26 01:53:41;;;;;;;3.22;2.58;;;;;;;;;;5032512;28;20114;-77
2023/07/26 01:56:07;;;;;;;4.22;3.03;;;;;;;;;;5032063;28;20393;-75
2023/07/26 01:58:32;;;;;;;3.97;3.08;;;;;;;;;;5030832;28;20032;-76
2023/07/26 02:00:58;;;;;;;4.22;3.13;;;;;;;;;;5032156;28;20021;-75
2023/07/26 02:03:24;;;;;;;4.57;3.40;;;;;;;;;;5032913;28;20025;-75
2023/07/26 02:05:49;;;;;;;4.40;3.42;;;;;;;;;;5031644;28;20029;-75
2023/07/26 02:08:18;;;;;;;4.15;3.22;;;;;;;;;;5030591;28;20021;-76
2023/07/26 02:10:44;;;;;;;5.20;3.42;;;;;;;;;;5033126;28;20055;-75
2023/07/26 02:13:09;;;;;;;4.25;3.00;;;;;;;;;;5032773;28;20025;-76
2023/07/26 02:15:35;;;;;;;4.18;3.38;;;;;;;;;;5033060;28;20504;-75
2023/07/26 02:18:00;;;;;;;5.60;3.20;;;;;;;;;;5031624;28;20026;-76
2023/07/26 02:20:25;;;;;;;4.55;3.25;;;;;;;;;;5032824;28;20032;-75
2023/07/26 02:22:51;;;;;;;4.72;3.35;;;;;;;;;;5031357;28;20028;-75
2023/07/26 02:25:17;;;;;;;4.10;3.22;;;;;;;;;;5031329;28;20179;-76
2023/07/26 02:27:42;;;;;;;4.30;2.75;;;;;;;;;;5032877;28;20025;-76
2023/07/26 02:30:08;;;;;;;4.78;3.15;;;;;;;;;;5031287;28;20111;-76
2023/07/26 02:32:33;;;;;;;6.43;3.15;;;;;;;;;;5031453;28;20108;-75
2023/07/26 02:34:59;;;;;;;4.28;2.90;;;;;;;;;;5032831;28;20036;-75
2023/07/26 02:37:24;;;;;;;4.57;2.90;;;;;;;;;;5031172;28;20036;-77
2023/07/26 02:39:50;;;;;;;4.50;3.20;;;;;;;;;;5032802;28;20021;-75
2023/07/26 02:42:15;;;;;;;4.35;2.80;;;;;;;;;;5031245;28;20473;-75
2023/07/26 02:44:41;;;;;;;4.40;2.67;;;;;;;;;;5031151;28;20021;-75
2023/07/26 02:47:06;;;;;;;5.10;2.80;;;;;;;;;;5032613;28;20110;-75
2023/07/26 02:49:32;;;;;;;3.78;2.80;;;;;;;;;;5032351;28;20033;-75
2023/07/26 02:51:58;;;;;;;3.67;2.88;;;;;;;;;;5032131;28;20486;-76
2023/07/26 02:54:23;;;;;;;4.72;3.13;;;;;;;;;;5023082;28;20022;-75
2023/07/26 02:56:49;;;;;;;4.90;2.92;;;;;;;;;;5031346;28;20477;-75
2023/07/26 02:59:15;;;;;;;4.82;2.90;;;;;;;;;;5030773;28;20048;-75
2023/07/26 03:01:40;;;;;;;3.50;2.60;;;;;;;;;;5032482;28;20022;-75
2023/07/26 03:04:05;;;;;;;3.90;2.92;;;;;;;;;;5031911;28;20053;-75
2023/07/26 03:06:31;;;;;;;4.55;3.00;;;;;;;;;;5030838;28;20531;-76
2023/07/26 03:08:56;;;;;;;4.47;3.08;;;;;;;;;;5032189;28;20025;-75
2023/07/26 03:11:22;;;;;;;4.03;2.92;;;;;;;;;;5034947;28;20503;-75
2023/07/26 03:13:47;;;;;;;4.85;3.38;;;;;;;;;;5036453;28;20024;-75
2023/07/26 03:16:16;;;;;;;5.30;3.25;;;;;;;;;;5028158;28;20473;-75
2023/07/26 03:18:42;;;;;;;5.38;3.08;;;;;;;;;;5034910;28;20025;-75
2023/07/26 03:21:08;;;;;;;4.05;3.03;;;;;;;;;;5036353;28;20079;-75
2023/07/26 03:23:34;;;;;;;4.70;3.38;;;;;;;;;;5035961;28;20024;-75
2023/07/26 03:26:00;;;;;;;6.30;3.10;;;;;;;;;;5036174;28;20579;-75
2023/07/26 03:28:25;;;;;;;7.75;3.15;;;;;;;;;;5035586;28;20465;-75
2023/07/26 03:30:51;;;;;;;4.45;3.17;;;;;;;;;;5034845;28;20022;-75
2023/07/26 03:33:16;;;;;;;4.65;2.92;;;;;;;;;;5034332;28;20448;-75
2023/07/26 03:35:42;;;;;;;4.70;3.03;;;;;;;;;;5036213;28;20028;-75
2023/07/26 03:38:07;;;;;;;6.35;3.00;;;;;;;;;;5035940;28;20112;-75
2023/07/26 03:40:32;;;;;;;4.72;3.35;;;;;;;;;;5036119;28;20076;-75
2023/07/26 03:42:58;;;;;;;4.40;3.40;;;;;;;;;;5035869;28;20013;-75
2023/07/26 03:45:26;;;;;;;5.20;3.35;;;;;;;;;;5035728;28;20029;-76
2023/07/26 03:47:52;;;;;;;4.80;3.60;;;;;;;;;;5034300;28;20506;-76
2023/07/26 03:50:17;;;;;;;4.78;3.40;;;;;;;;;;5035094;28;20025;-75
2023/07/26 03:52:43;;;;;;;4.88;3.22;;;;;;;;;;5035402;28;20036;-75
2023/07/26 03:55:08;;;;;;;4.55;3.10;;;;;;;;;;5034395;28;20022;-75
2023/07/26 03:57:33;;;;;;;5.30;3.83;;;;;;;;;;5031574;28;20041;-77
2023/07/26 03:59:59;;;;;;;4.80;3.60;;;;;;;;;;5034191;28;20028;-75
2023/07/26 04:02:24;;;;;;;4.20;3.00;;;;;;;;;;5035586;28;20045;-76
2023/07/26 04:04:50;;;;;;;5.03;3.35;;;;;;;;;;5035506;28;20030;-75
2023/07/26 04:07:15;;;;;;;4.78;3.17;;;;;;;;;;5031989;28;20036;-75
2023/07/26 04:09:41;;;;;;;5.70;3.78;;;;;;;;;;5035255;28;20100;-75
2023/07/26 04:12:06;;;;;;;4.95;3.35;;;;;;;;;;5033975;28;20025;-75
2023/07/26 04:14:32;;;;;;;4.80;3.28;;;;;;;;;;5033875;28;20415;-75
2023/07/26 04:16:57;;;;;;;5.10;3.30;;;;;;;;;;5035355;28;20032;-76
2023/07/26 04:19:23;;;;;;;4.63;3.13;;;;;;;;;;5033923;28;20025;-75
2023/07/26 04:21:48;;;;;;;5.35;3.22;;;;;;;;;;5032499;28;20072;-75
2023/07/26 04:24:13;;;;;;;4.55;3.35;;;;;;;;;;5030387;28;20018;-76
2023/07/26 04:26:39;;;;;;;4.50;3.10;;;;;;;;;;5033886;28;20044;-75
2023/07/26 04:29:04;;;;;;;4.40;3.20;;;;;;;;;;5034610;28;20087;-76
2023/07/26 04:31:30;;;;;;;7.10;3.20;;;;;;;;;;5039636;28;20385;-75
2023/07/26 04:33:55;;;;;;;4.72;3.53;;;;;;;;;;5034852;28;20030;-75
2023/07/26 04:36:20;;;;;;;5.38;3.60;;;;;;;;;;5033577;28;20027;-75
2023/07/26 04:38:46;;;;;;;4.43;3.20;;;;;;;;;;5034988;28;20489;-76
2023/07/26 04:41:13;;;;;;;5.93;3.75;;;;;;;;;;5031655;28;20026;-75
2023/07/26 04:43:38;;;;;;;4.75;3.38;;;;;;;;;;5033167;28;20021;-76
2023/07/26 04:46:04;;;;;;;6.45;3.70;;;;;;;;;;5034717;28;20566;-76
2023/07/26 04:48:29;;;;;;;4.85;3.30;;;;;;;;;;5034507;28;20024;-75
2023/07/26 04:50:55;;;;;;;5.03;3.38;;;;;;;;;;5034753;28;20075;-75
2023/07/26 04:53:20;;;;;;;5.32;3.28;;;;;;;;;;5034451;28;20105;-75
2023/07/26 04:55:48;;;;;;;5.55;3.95;;;;;;;;;;5034539;28;20022;-75
2023/07/26 04:58:13;;;;;;;5.70;3.25;;;;;;;;;;5032127;28;20018;-75
2023/07/26 05:00:42;;;;;;;7.72;4.00;;;;;;;;;;5034453;28;20101;-76
2023/07/26 05:03:09;;;;;;;4.90;3.63;;;;;;;;;;5033072;28;20026;-75
2023/07/26 05:05:36;;;;;;;5.63;3.78;;;;;;;;;;5034241;28;20072;-75
2023/07/26 05:08:02;;;;;;;4.97;3.60;;;;;;;;;;5034195;28;20033;-75
2023/07/26 05:10:28;;;;;;;5.15;3.90;;;;;;;;;;5034150;28;20493;-75
2023/07/26 05:12:55;;;;;;;6.13;3.70;;;;;;;;;;5032965;28;20026;-75
2023/07/26 05:15:20;;;;;;;5.15;3.70;;;;;;;;;;5032342;28;20087;-75
2023/07/26 05:17:46;;;;;;;4.80;3.63;;;;;;;;;;5034265;28;20025;-75
2023/07/26 05:20:12;;;;;;;5.38;3.40;;;;;;;;;;5034008;28;20021;-75
2023/07/26 05:22:38;;;;;;;6.40;4.40;;;;;;;;;;5031211;28;20109;-77
2023/07/26 05:25:03;;;;;;;6.90;3.92;;;;;;;;;;5032583;28;20120;-76
2023/07/26 05:27:29;;;;;;;5.55;4.22;;;;;;;;;;5033888;28;20025;-75
2023/07/26 05:29:57;;;;;;;5.22;4.10;;;;;;;;;;5031751;28;20490;-75
2023/07/26 05:32:25;;;;;;;4.97;3.67;;;;;;;;;;5025260;28;20037;-75
2023/07/26 05:34:55;;;;;;;5.80;3.67;;;;;;;;;;5033580;28;20025;-76
2023/07/26 05:37:22;;;;;;;4.85;3.75;;;;;;;;;;5033972;28;20064;-75
2023/07/26 05:39:52;;;;;;;5.35;3.70;;;;;;;;;;5032301;28;20488;-75
2023/07/26 05:42:18;;;;;;;5.10;3.42;;;;;;;;;;5033645;28;20025;-76
2023/07/26 05:44:44;;;;;;;4.97;3.60;;;;;;;;;;5032055;28;20028;-75
2023/07/26 05:47:11;;;;;;;5.55;3.55;;;;;;;;;;5031633;28;20026;-75
2023/07/26 05:49:36;;;;;;;5.72;3.67;;;;;;;;;;5032443;28;20048;-75
2023/07/26 05:52:03;;;;;;;5.38;3.80;;;;;;;;;;5032270;28;20087;-75
2023/07/26 05:54:28;;;;;;;5.47;3.33;;;;;;;;;;5032037;28;20029;-75
2023/07/26 05:56:54;;;;;;;6.35;3.88;;;;;;;;;;5033468;28;20531;-76
2023/07/26 05:59:20;;;;;;;6.90;3.58;;;;;;;;;;5033030;28;20022;-75
2023/07/26 06:01:45;;;;;;;8.52;4.63;;;;;;;;;;5032493;28;20024;-75
2023/07/26 06:04:10;;;;;;;5.50;3.72;;;;;;;;;;5029534;28;20025;-75
2023/07/26 06:06:36;;;;;;;7.97;4.50;;;;;;;;;;5028693;28;20029;-75
2023/07/26 06:09:01;;;;;;;7.63;4.72;;;;;;;;;;5033065;28;20485;-75
2023/07/26 06:11:27;;;;;;;8.30;4.38;;;;;;;;;;5033093;28;20025;-75
2023/07/26 06:13:54;;;;;;;9.15;4.90;;;;;;;;;;5031860;28;20025;-75
2023/07/26 06:16:19;;;;;;;7.25;5.13;;;;;;;;;;5033031;28;20021;-75
2023/07/26 06:18:45;;;;;;;6.05;4.18;;;;;;;;;;5031708;28;20087;-75
2023/07/26 06:21:11;;;;;;;7.68;5.00;;;;;;;;;;5032245;28;20040;-75
2023/07/26 06:23:37;;;;;;;6.32;4.45;;;;;;;;;;5032978;28;20385;-76
2023/07/26 06:26:03;;;;;;;6.78;4.20;;;;;;;;;;5032756;28;20032;-75
2023/07/26 06:28:29;;;;;;;7.85;5.32;;;;;;;;;;5032544;28;20032;-75
2023/07/26 06:30:55;;;;;;;6.93;4.50;;;;;;;;;;5032718;28;20029;-75
2023/07/26 06:33:21;;;;;;;6.72;4.20;;;;;;;;;;5031425;28;20393;-75
2023/07/26 06:35:46;;;;;;;6.47;4.20;;;;;;;;;;5033064;28;20025;-75
2023/07/26 06:38:12;;;;;;;6.65;4.20;;;;;;;;;;5030488;28;20057;-76
2023/07/26 06:40:37;;;;;;;9.65;5.13;;;;;;;;;;5032626;28;20016;-75
2023/07/26 06:43:03;;;;;;;6.95;4.35;;;;;;;;;;5031453;28;20036;-75
2023/07/26 06:45:28;;;;;;;7.10;4.30;;;;;;;;;;5031837;28;20029;-75
2023/07/26 06:47:54;;;;;;;6.32;4.63;;;;;;;;;;5031649;28;20396;-75
2023/07/26 06:50:19;;;;;;;6.25;3.90;;;;;;;;;;5032218;28;20468;-75
2023/07/26 06:52:45;;;;;;;6.25;4.18;;;;;;;;;;5032653;28;20109;-76
2023/07/26 06:55:10;;;;;;;7.25;4.95;;;;;;;;;;5031481;28;20025;-75
2023/07/26 06:57:36;;;;;;;9.98;5.70;;;;;;;;;;5031305;28;20052;-75
2023/07/26 07:00:01;;;;;;;7.72;5.50;;;;;;;;;;5032256;28;20473;-75
2023/07/26 07:02:27;;;;;;;7.20;4.55;;;;;;;;;;5032156;28;20033;-78
2023/07/26 07:04:52;;;;;;;9.23;5.63;;;;;;;;;;5032075;28;20026;-77
2023/07/26 07:07:17;;;;;;;9.18;5.80;;;;;;;;;;5031024;28;20022;-77
2023/07/26 07:09:43;;;;;;;9.52;4.70;;;;;;;;;;5030705;28;20064;-77
2023/07/26 07:12:09;;;;;;;7.68;4.40;;;;;;;;;;5030657;28;20021;-77
2023/07/26 07:14:35;;;;;;;6.65;4.72;;;;;;;;;;5027193;28;20426;-77
2023/07/26 07:17:00;;;;;;;7.60;4.25;;;;;;;;;;5030974;28;20025;-77
2023/07/26 07:19:26;;;;;;;8.20;5.07;;;;;;;;;;5030761;28;20112;-77
2023/07/26 07:21:51;;;;;;;7.55;5.00;;;;;;;;;;5028225;28;20053;-76
2023/07/26 07:24:17;;;;;;;7.28;4.65;;;;;;;;;;5032168;28;20037;-77
2023/07/26 07:26:42;;;;;;;8.65;4.63;;;;;;;;;;5032320;28;20037;-76
2023/07/26 07:29:07;;;;;;;6.78;4.57;;;;;;;;;;5029978;28;20025;-77
2023/07/26 07:31:33;;;;;;;7.53;4.90;;;;;;;;;;5042581;28;20485;-76
2023/07/26 07:33:58;;;;;;;8.20;5.53;;;;;;;;;;5030888;28;20045;-77
2023/07/26 07:36:24;;;;;;;7.57;4.78;;;;;;;;;;5030543;28;20025;-76
2023/07/26 07:38:49;;;;;;;8.38;5.60;;;;;;;;;;5030878;28;20022;-76
2023/07/26 07:41:14;;;;;;;6.60;4.30;;;;;;;;;;5030323;28;20028;-77
2023/07/26 07:43:40;;;;;;;6.68;4.60;;;;;;;;;;5030779;28;20021;-76
2023/07/26 07:46:05;;;;;;;8.48;4.88;;;;;;;;;;5029358;28;20396;-76
2023/07/26 07:48:31;;;;;;;5.97;4.35;;;;;;;;;;5025591;28;20428;-77
2023/07/26 07:50:56;;;;;;;7.05;5.35;;;;;;;;;;5028694;28;20025;-76
2023/07/26 07:53:23;;;;;;;7.45;5.50;;;;;;;;;;5031906;28;20490;-77
2023/07/26 07:55:49;;;;;;;8.98;6.28;;;;;;;;;;5032891;28;20044;-76
2023/07/26 07:58:14;;;;;;;8.27;5.85;;;;;;;;;;5035779;28;20473;-77
2023/07/26 08:00:39;;;;;;;7.75;5.75;;;;;;;;;;5035389;28;20108;-77
2023/07/26 08:03:05;;;;;;;8.30;5.45;;;;;;;;;;5032883;28;20025;-77
2023/07/26 08:05:32;;;;;;;6.47;4.80;;;;;;;;;;5034812;28;20171;-76
2023/07/26 08:07:58;;;;;;;6.05;4.03;;;;;;;;;;5035389;28;20032;-76
2023/07/26 08:10:23;;;;;;;7.88;5.50;;;;;;;;;;5017455;28;20026;-76
2023/07/26 08:12:49;;;;;;;9.73;5.85;;;;;;;;;;5034476;28;20029;-77
2023/07/26 08:15:14;;;;;;;7.40;4.97;;;;;;;;;;5035482;28;20048;-77
2023/07/26 08:17:40;;;;;;;9.10;6.30;;;;;;;;;;5035181;28;20107;-76
2023/07/26 08:20:06;;;;;;;8.65;6.15;;;;;;;;;;5032981;28;20036;-77
2023/07/26 08:22:32;;;;;;;9.98;6.38;;;;;;;;;;5035014;28;20033;-76
2023/07/26 08:24:57;;;;;;;8.98;5.85;;;;;;;;;;5033842;28;20017;-76
2023/07/26 08:27:23;;;;;;;8.40;6.25;;;;;;;;;;5035122;28;20516;-76
2023/07/26 08:29:48;;;;;;;9.50;6.47;;;;;;;;;;5033414;28;20021;-76
2023/07/26 08:32:14;;;;;;;10.02;6.70;;;;;;;;;;5033943;28;20120;-76
2023/07/26 08:34:39;;;;;;;11.30;6.30;;;;;;;;;;5033556;28;20068;-77
2023/07/26 08:37:05;;;;;;;10.90;7.00;;;;;;;;;;5032852;28;20044;-77
2023/07/26 08:39:30;;;;;;;11.43;7.50;;;;;;;;;;5034949;28;20112;-76
2023/07/26 08:41:56;;;;;;;11.98;7.03;;;;;;;;;;5034680;28;20448;-76
2023/07/26 08:44:22;;;;;;;11.43;7.22;;;;;;;;;;5033374;28;20020;-76
2023/07/26 08:46:50;;;;;;;10.27;6.88;;;;;;;;;;5034812;28;20099;-76
2023/07/26 08:49:16;;;;;;;8.45;6.70;;;;;;;;;;5032094;28;20017;-78
2023/07/26 08:51:43;;;;;;;10.93;7.07;;;;;;;;;;5034455;28;20064;-78
2023/07/26 08:54:09;;;;;;;11.65;6.53;;;;;;;;;;5033993;28;20017;-77
2023/07/26 08:56:35;;;;;;;10.15;6.35;;;;;;;;;;5033182;28;20548;-77
2023/07/26 08:59:00;;;;;;;8.05;5.90;;;;;;;;;;5034514;28;20117;-77
2023/07/26 09:01:26;;;;;;;9.23;7.25;;;;;;;;;;5034345;28;20021;-77
2023/07/26 09:03:52;;;;;;;8.60;6.30;;;;;;;;;;5034207;28;20024;-78
2023/07/26 09:06:18;;;;;;;10.55;6.40;;;;;;;;;;5032685;28;20029;-77
2023/07/26 09:08:43;;;;;;;8.48;6.70;;;;;;;;;;5033822;28;20112;-77
2023/07/26 09:11:26;;;;;;;8.80;5.85;;;;;;;;;;5031309;28;20394;-78
2023/07/26 09:13:57;;;;;;;9.77;6.20;;;;;;;;;;5034437;28;20041;-77
2023/07/26 09:16:27;;;;;;;8.35;5.95;;;;;;;;;;5032653;28;20086;-77
2023/07/26 09:19:01;;;;;;;8.77;6.25;;;;;;;;;;5032889;28;20017;-77
2023/07/26 09:21:28;;;;;;;9.13;6.13;;;;;;;;;;5030963;28;20021;-77
2023/07/26 09:23:55;;;;;;;8.32;5.82;;;;;;;;;;5032741;28;20040;-77
2023/07/26 09:26:40;;;;;;;7.63;5.80;;;;;;;;;;5032891;28;20032;-77
2023/07/26 09:29:11;;;;;;;10.02;5.90;;;;;;;;;;5032694;28;20473;-77
2023/07/26 09:31:38;;;;;;;9.23;5.93;;;;;;;;;;5032452;28;20052;-77
2023/07/26 09:34:08;;;;;;;7.93;5.15;;;;;;;;;;5033794;28;20492;-77
2023/07/26 09:36:48;;;;;;;8.73;5.60;;;;;;;;;;5032363;28;20033;-78
2023/07/26 09:39:15;;;;;;;7.40;4.90;;;;;;;;;;5033685;28;20036;-77
2023/07/26 09:41:41;;;;;;;8.00;5.55;;;;;;;;;;5032259;28;20017;-77
2023/07/26 09:44:18;;;;;;;8.68;5.40;;;;;;;;;;5033594;28;20021;-77
2023/07/26 09:46:56;;;;;;;8.25;5.18;;;;;;;;;;5026575;28;20470;-77
2023/07/26 09:49:23;;;;;;;7.07;4.85;;;;;;;;;;5030915;28;20106;-78
2023/07/26 09:51:54;;;;;;;6.75;3.80;;;;;;;;;;5032091;28;20104;-77
2023/07/26 09:54:30;;;;;;;6.35;3.67;;;;;;;;;;5033388;28;20018;-77
2023/07/26 09:56:56;;;;;;;8.18;5.25;;;;;;;;;;5031900;28;20108;-77
2023/07/26 09:59:29;;;;;;;8.88;5.43;;;;;;;;;;5033300;28;20045;-78
2023/07/26 10:01:58;;;;;;;8.73;4.40;;;;;;;;;;5032937;28;20026;-77
2023/07/26 10:04:36;;;;;;;6.60;4.15;;;;;;;;;;5032978;28;20401;-78
2023/07/26 10:07:04;;;;;;;5.60;3.47;;;;;;;;;;5032842;28;20109;-77
2023/07/26 10:09:32;;;;;;;6.93;3.88;;;;;;;;;;5031764;28;20025;-77
2023/07/26 10:12:02;;;;;;;5.68;3.33;;;;;;;;;;5032181;28;20493;-77
2023/07/26 10:14:30;;;;;;;7.68;3.50;;;;;;;;;;5033094;28;20021;-78
2023/07/26 10:16:58;;;;;;;6.82;3.35;;;;;;;;;;5032983;28;20029;-77
2023/07/26 10:19:26;;;;;;;6.00;3.55;;;;;;;;;;5027916;28;20486;-77
2023/07/26 10:21:52;;;;;;;5.97;3.35;;;;;;;;;;5032590;28;20025;-78
2023/07/26 10:24:19;;;;;;;6.45;3.75;;;;;;;;;;5031771;28;20020;-77
2023/07/26 10:26:46;;;;;;;7.03;3.97;;;;;;;;;;5032754;28;20098;-77
2023/07/26 10:29:12;;;;;;;8.75;3.42;;;;;;;;;;5032879;28;20446;-77
2023/07/26 10:31:38;;;;;;;8.98;3.63;;;;;;;;;;5032564;28;20026;-77
2023/07/26 10:34:04;;;;;;;3.90;2.22;;;;;;;;;;5034717;28;20021;-77
2023/07/26 10:36:33;;;;;;;4.30;2.40;;;;;;;;;;5031751;28;20473;-77
2023/07/26 10:39:03;;;;;;;3.53;1.83;;;;;;;;;;5032531;28;20026;-77
2023/07/26 10:41:29;;;;;;;4.18;2.00;;;;;;;;;;5028497;28;20474;-77
2023/07/26 10:44:08;;;;;;;5.93;2.67;;;;;;;;;;5032431;28;20009;-78
2023/07/26 10:46:52;;;;;;;5.97;2.80;;;;;;;;;;5031283;28;20394;-77
2023/07/26 10:49:26;;;;;;;5.60;3.17;;;;;;;;;;5043554;28;20447;-77
2023/07/26 10:52:00;;;;;;;9.93;2.75;;;;;;;;;;5032406;28;20026;-77
2023/07/26 10:54:49;;;;;;;4.85;2.75;;;;;;;;;;5030660;28;20030;-77
2023/07/26 10:57:26;;;;;;;5.63;2.70;;;;;;;;;;5030997;28;20029;-78
2023/07/26 11:00:01;;;;;;;5.25;2.50;;;;;;;;;;5032366;28;20525;-78
2023/07/26 11:02:38;;;;;;;7.10;3.10;;;;;;;;;;5023277;28;20025;-77
2023/07/26 11:05:09;;;;;;;5.25;2.60;;;;;;;;;;5031299;28;20029;-77
2023/07/26 11:07:55;;;;;;;5.63;3.65;;;;;;;;;;5032056;28;20040;-77
2023/07/26 11:10:23;;;;;;;5.53;3.05;;;;;;;;;;5031035;28;20087;-77
2023/07/26 11:13:02;;;;;;;5.43;3.17;;;;;;;;;;5032270;28;20541;-77
2023/07/26 11:15:29;;;;;;;5.93;3.25;;;;;;;;;;5046306;28;20022;-77
2023/07/26 11:17:55;;;;;;;8.57;3.45;;;;;;;;;;5030229;28;20443;-77
2023/07/26 11:20:20;;;;;;;7.80;3.42;;;;;;;;;;5031151;28;20108;-77
2023/07/26 11:22:45;;;;;;;5.85;3.15;;;;;;;;;;5032029;28;20033;-77
2023/07/26 11:25:11;;;;;;;5.70;2.85;;;;;;;;;;5030865;28;20025;-78
2023/07/26 11:27:37;;;;;;;5.38;2.72;;;;;;;;;;5030707;28;20025;-77
2023/07/26 11:30:03;;;;;;;6.78;2.60;;;;;;;;;;5031906;28;20020;-77
2023/07/26 11:32:29;;;;;;;4.53;2.17;;;;;;;;;;5036189;28;20388;-77
2023/07/26 11:34:58;;;;;;;6.00;2.92;;;;;;;;;;5035926;28;20021;-77
2023/07/26 11:37:24;;;;;;;4.90;2.65;;;;;;;;;;5034810;28;20066;-78
2023/07/26 11:40:03;;;;;;;6.82;2.75;;;;;;;;;;5034907;28;20136;-77
2023/07/26 11:42:33;;;;;;;6.88;2.88;;;;;;;;;;5034595;28;20037;-77
2023/07/26 11:45:03;;;;;;;6.57;3.00;;;;;;;;;;5033934;28;20029;-77
2023/07/26 11:47:32;;;;;;;6.03;2.72;;;;;;;;;;5034890;28;20511;-77
2023/07/26 11:49:57;;;;;;;7.18;3.10;;;;;;;;;;5034406;28;20053;-77
2023/07/26 11:52:23;;;;;;;4.70;2.45;;;;;;;;;;5035871;28;20107;-77
2023/07/26 11:54:57;;;;;;;5.20;2.78;;;;;;;;;;5034419;28;20055;-77
2023/07/26 11:57:25;;;;;;;5.38;2.88;;;;;;;;;;5031049;28;20029;-77
2023/07/26 11:59:52;;;;;;;6.75;3.25;;;;;;;;;;5034435;28;20022;-78
2023/07/26 12:02:17;;;;;;;5.38;3.17;;;;;;;;;;5029972;28;20545;-77
2023/07/26 12:05:16;;;;;;;5.95;2.75;;;;;;;;;;5034354;28;20116;-77
2023/07/26 12:07:48;;;;;;;6.28;2.80;;;;;;;;;;5035862;28;20041;-78
2023/07/26 12:10:15;;;;;;;3.35;2.20;;;;;;;;;;5034107;28;20496;-77
2023/07/26 12:12:43;;;;;;;6.43;2.83;;;;;;;;;;5035369;28;20036;-77
2023/07/26 12:15:10;;;;;;;5.15;3.00;;;;;;;;;;5035001;28;20385;-77
2023/07/26 12:17:35;;;;;;;4.93;2.92;;;;;;;;;;5035224;28;20022;-77
2023/07/26 12:20:09;;;;;;;7.35;2.97;;;;;;;;;;5031239;28;20397;-77
2023/07/26 12:22:50;;;;;;;4.68;2.50;;;;;;;;;;5027716;28;20489;-77
2023/07/26 12:25:15;;;;;;;3.58;2.22;;;;;;;;;;5032517;28;20014;-78
2023/07/26 12:27:41;;;;;;;5.15;2.30;;;;;;;;;;5033750;28;20538;-78
2023/07/26 12:30:12;;;;;;;4.03;2.33;;;;;;;;;;5034955;28;20052;-77
2023/07/26 12:32:37;;;;;;;5.07;2.78;;;;;;;;;;5033675;28;20032;-77
2023/07/26 12:35:25;;;;;;;4.82;2.30;;;;;;;;;;5033662;28;20029;-77
2023/07/26 12:37:51;;;;;;;4.65;2.17;;;;;;;;;;5032430;28;20117;-77
2023/07/26 12:40:18;;;;;;;4.45;2.63;;;;;;;;;;5034811;28;20104;-78
2023/07/26 12:42:43;;;;;;;4.72;2.45;;;;;;;;;;5032335;28;20485;-77
2023/07/26 12:45:09;;;;;;;5.32;2.40;;;;;;;;;;5034623;28;20036;-77
2023/07/26 12:47:34;;;;;;;3.95;2.03;;;;;;;;;;5033396;28;20117;-78
2023/07/26 12:50:00;;;;;;;4.40;2.42;;;;;;;;;;5034615;28;20034;-77
2023/07/26 12:52:25;;;;;;;4.63;2.50;;;;;;;;;;5029938;28;20443;-77
2023/07/26 12:54:51;;;;;;;4.15;2.58;;;;;;;;;;5029332;28;20133;-77
2023/07/26 12:57:16;;;;;;;5.20;2.67;;;;;;;;;;5034571;28;20071;-77
2023/07/26 12:59:42;;;;;;;5.20;2.50;;;;;;;;;;5033277;28;20124;-77
2023/07/26 13:02:07;;;;;;;6.63;2.28;;;;;;;;;;5033288;28;20099;-77
2023/07/26 13:04:33;;;;;;;4.70;2.30;;;;;;;;;;5032818;28;20048;-77
2023/07/26 13:06:58;;;;;;;3.55;1.90;;;;;;;;;;5034183;28;20045;-77
2023/07/26 13:09:23;;;;;;;4.15;2.08;;;;;;;;;;5030589;28;20030;-78
2023/07/26 13:11:49;;;;;;;4.75;2.63;;;;;;;;;;5033069;28;20021;-76
2023/07/26 13:14:14;;;;;;;6.30;2.47;;;;;;;;;;5032976;28;20029;-78
2023/07/26 13:16:40;;;;;;;4.93;2.10;;;;;;;;;;5032759;28;20133;-77
2023/07/26 13:19:05;;;;;;;3.67;1.88;;;;;;;;;;5034199;28;20017;-78
2023/07/26 13:21:31;;;;;;;4.72;1.80;;;;;;;;;;5032735;28;20436;-77
2023/07/26 13:23:57;;;;;;;3.95;2.22;;;;;;;;;;5034179;28;20420;-76
2023/07/26 13:26:22;;;;;;;4.55;2.00;;;;;;;;;;5028879;28;20022;-77
2023/07/26 13:28:48;;;;;;;3.60;2.20;;;;;;;;;;5029133;28;20048;-77
2023/07/26 13:31:13;;;;;;;5.18;2.80;;;;;;;;;;5033649;28;20052;-77
2023/07/26 13:33:39;;;;;;;4.57;2.50;;;;;;;;;;5034314;28;20026;-77
2023/07/26 13:36:05;;;;;;;5.55;2.88;;;;;;;;;;5035645;28;20096;-77
2023/07/26 13:38:30;;;;;;;5.50;2.70;;;;;;;;;;5032464;28;20027;-77
2023/07/26 13:40:55;;;;;;;6.80;2.72;;;;;;;;;;5031932;28;20029;-77
2023/07/26 13:43:21;;;;;;;4.18;2.40;;;;;;;;;;5030107;28;20022;-77
2023/07/26 13:45:46;;;;;;;5.85;2.85;;;;;;;;;;5032804;28;20104;-77
2023/07/26 13:48:12;;;;;;;6.00;3.20;;;;;;;;;;5032445;28;20095;-77
2023/07/26 13:50:37;;;;;;;5.35;2.50;;;;;;;;;;5032016;28;20021;-77
2023/07/26 13:53:02;;;;;;;4.97;2.75;;;;;;;;;;5033432;28;20574;-77
2023/07/26 13:55:28;;;;;;;6.75;2.90;;;;;;;;;;5032086;28;20503;-77
2023/07/26 13:57:53;;;;;;;4.97;2.67;;;;;;;;;;5033537;28;20156;-77
2023/07/26 14:00:19;;;;;;;5.22;2.70;;;;;;;;;;5028587;28;20049;-77
2023/07/26 14:02:44;;;;;;;5.00;2.90;;;;;;;;;;5048841;28;20072;-76
2023/07/26 14:05:10;;;;;;;5.95;2.95;;;;;;;;;;5032119;28;20024;-77
2023/07/26 14:07:35;;;;;;;4.65;2.40;;;;;;;;;;5032876;28;20544;-76
2023/07/26 14:10:01;;;;;;;3.38;1.70;;;;;;;;;;5031856;28;20025;-76
2023/07/26 14:12:27;;;;;;;3.42;1.73;;;;;;;;;;5032336;28;20049;-76
2023/07/26 14:14:53;;;;;;;3.60;1.90;;;;;;;;;;5031655;28;20021;-77
2023/07/26 14:17:20;;;;;;;3.00;1.58;;;;;;;;;;5028452;28;20041;-77
2023/07/26 14:19:45;;;;;;;3.47;1.67;;;;;;;;;;5032859;28;20104;-76
2023/07/26 14:22:11;;;;;;;2.50;1.30;;;;;;;;;;5031671;28;20109;-76
2023/07/26 14:24:36;;;;;;;3.00;1.58;;;;;;;;;;5032760;28;20017;-77
2023/07/26 14:27:01;;;;;;;3.58;1.67;;;;;;;;;;5031757;28;20044;-77
2023/07/26 14:29:27;;;;;;;2.92;1.50;;;;;;;;;;5032595;28;20025;-76
2023/07/26 14:31:53;;;;;;;3.50;1.60;;;;;;;;;;5030550;28;20496;-76
2023/07/26 14:34:19;;;;;;;3.30;1.33;;;;;;;;;;5027082;28;20540;-77
2023/07/26 14:36:44;;;;;;;2.80;1.38;;;;;;;;;;5026223;28;20032;-77
2023/07/26 14:39:10;;;;;;;3.15;1.27;;;;;;;;;;5031572;28;20017;-77
2023/07/26 14:41:35;;;;;;;2.50;1.40;;;;;;;;;;5029743;28;20030;-77